»·PEaware :: N982CA KSNA-KSBA

N982CA :: KSNA-KSBA

FLIGHT INFORMATION

Flight Status: Arrived
Operator: Privately registered:
United States
More flights under this callsign
Pilot: David C. (25479)
Aircraft: SOCATA TBM-900
(TBM9)
More flights by this aircraft type
Origin: KSNA John Wayne-Orange Co
United States
Destination: KSBA Santa Barbara Mun
United States
More flights between these airports :: More routes between these airports
Route: LOCAL VFR
File this flight plan on PilotEdge
Remarks:
Altitude:
(Current/Filed)
4,500ft
Speed:
(Current/Filed)
190kts
Departed: 01-Dec-20 01:24 PM
Arrived: 01-Dec-20 02:08 PM
Distance/Time
Traveled:
108nm/0:44
Distance/Time
To Go:
Arrived

Flight Plot

Page will automatically refresh every two minutes.

Flight plan parsing failed; only flown route is shown


Map Options




Map Legend


Flown Route
Filed Route
Departure Airport
Arrival Airport
Navaid (VOR, NDB)
Fix

Horizontal Profiles

Position Reports

Time Latitude Longitude Heading Altitude Ground
Speed
01-Dec-20 13:11 33.671858 -117.867045 192 53ft 0kts
01-Dec-20 13:12 33.671858 -117.867045 192 53ft 0kts
01-Dec-20 13:13 33.671858 -117.867045 192 53ft 0kts
01-Dec-20 13:14 33.671858 -117.867045 192 53ft 0kts
01-Dec-20 13:15 33.671858 -117.867045 192 53ft 0kts
01-Dec-20 13:16 33.671858 -117.867045 192 53ft 0kts
01-Dec-20 13:17 33.671858 -117.867045 192 53ft 0kts
01-Dec-20 13:18 33.672879 -117.867565 5 57ft 14kts
01-Dec-20 13:19 33.676752 -117.865456 28 53ft 18kts
01-Dec-20 13:20 33.679950 -117.863659 299 45ft 0kts
01-Dec-20 13:22 33.679950 -117.863659 299 45ft 0kts
01-Dec-20 13:22 33.680250 -117.864276 303 45ft 17kts
01-Dec-20 13:23 33.670052 -117.875344 241 365ft 91kts
01-Dec-20 13:24 33.671242 -117.904817 248 1145ft 103kts
01-Dec-20 13:25 33.663026 -117.938769 254 1960ft 107kts
01-Dec-20 13:26 33.652890 -117.974892 253 2381ft 123kts
01-Dec-20 13:27 33.641786 -118.015315 253 2980ft 166kts
01-Dec-20 13:28 33.625603 -118.076321 253 3708ft 203kts
01-Dec-20 13:29 33.611082 -118.142542 281 4372ft 210kts
01-Dec-20 13:30 33.651468 -118.194032 324 4489ft 219kts
01-Dec-20 13:31 33.701564 -118.236562 325 4480ft 220kts
01-Dec-20 13:32 33.751809 -118.278176 326 4496ft 219kts
01-Dec-20 13:33 33.802419 -118.319114 326 4500ft 219kts
01-Dec-20 13:34 33.853723 -118.358163 328 4499ft 218kts
01-Dec-20 13:35 33.892288 -118.386781 331 4479ft 126kts
01-Dec-20 13:36 33.922452 -118.407145 332 4495ft 123kts
01-Dec-20 13:37 33.952619 -118.426841 334 4500ft 123kts
01-Dec-20 13:38 33.983505 -118.444869 336 4499ft 123kts
01-Dec-20 13:39 34.014943 -118.460337 348 4498ft 121kts
01-Dec-20 13:40 34.047641 -118.470872 341 4499ft 121kts
01-Dec-20 13:41 34.079534 -118.487480 337 4480ft 157kts
01-Dec-20 13:42 34.116889 -118.532222 297 4496ft 213kts
01-Dec-20 13:43 34.145045 -118.595882 300 4494ft 216kts
01-Dec-20 13:44 34.169891 -118.662272 286 4489ft 218kts
01-Dec-20 13:45 34.183111 -118.733819 283 4495ft 218kts
01-Dec-20 13:46 34.195594 -118.805931 282 4487ft 219kts
01-Dec-20 13:47 34.207931 -118.877992 282 4487ft 219kts
01-Dec-20 13:48 34.220628 -118.950075 282 4503ft 220kts
01-Dec-20 13:49 34.233673 -119.022193 283 4491ft 220kts
01-Dec-20 13:50 34.246866 -119.094198 282 4484ft 220kts
01-Dec-20 13:51 34.260114 -119.166360 283 4488ft 220kts
01-Dec-20 13:52 34.273701 -119.238735 283 4490ft 221kts
01-Dec-20 13:53 34.285575 -119.302086 282 4453ft 138kts
01-Dec-20 13:54 34.296525 -119.347011 293 3572ft 137kts
01-Dec-20 13:55 34.311520 -119.389276 295 2769ft 135kts
01-Dec-20 13:56 34.332480 -119.431987 306 2501ft 192kts
01-Dec-20 13:57 34.354143 -119.475347 299 2491ft 123kts
01-Dec-20 13:58 34.371411 -119.510780 312 2489ft 121kts
01-Dec-20 13:59 34.394004 -119.541027 315 2491ft 121kts
01-Dec-20 14:00 34.417359 -119.570544 315 2488ft 121kts
01-Dec-20 14:01 34.431493 -119.606569 262 1872ft 145kts
01-Dec-20 14:02 34.424618 -119.649617 264 1434ft 119kts
01-Dec-20 14:03 34.425052 -119.696752 281 1726ft 192kts
01-Dec-20 14:04 34.428481 -119.756238 268 1305ft 129kts
01-Dec-20 14:05 34.428150 -119.798941 268 736ft 126kts
01-Dec-20 14:06 34.427802 -119.839195 264 15ft 76kts
01-Dec-20 14:07 34.428433 -119.845658 70 12ft 0kts
01-Dec-20 14:08 34.428433 -119.845658 70 12ft 0kts
01-Dec-20 14:09 34.430652 -119.840144 73 11ft 19kts
01-Dec-20 14:10 34.432432 -119.834209 28 12ft 10kts
01-Dec-20 14:11 34.432791 -119.834705 245 12ft 0kts

Navigation Log

Ident Type
Flight plan parsing failed, navigation log unavailable